Sebring, FL (33870)

9:55 PM EST on February 13, 2016 (GMT -0500)
North Lake Jackson | | Change Station
CLOSE
Current Station
Personal Weather Station
Location: Sebring, FL
Elevation: 115 ft
Nearby Weather Stations

Elev 115 ft 27.51 °N, 81.48 °W | Updated 5 minutes ago

Clear
Clear
54.1 °F
Feels Like 54.1 °F
N
6.2
Wind Variable Wind from NE
Gusts 8.8 mph

Today
High -- | Low -- °F
--% Chance of Precip.
Yesterday
High -- | Low -- °F
Precip. -- in
Pressure 30.25 in
Visibility 10.0 miles
Clouds Clear
Dew Point 48 °F
Humidity 79%
Rainfall 0.00 in
Snow Depth Not available.
7:04 AM 6:15 PM
Waxing Crescent, 37% visible
METAR KOBE 140235Z AUTO 02005KT 10SM CLR 10/07 A3025 RMK AO2
Pressure 30.25 in
Visibility 10.0 miles
Clouds Clear
Dew Point 48 °F
Humidity 79%
Rainfall 0.00 in
Snow Depth Not available.
7:04 AM 6:15 PM
Waxing Crescent, 37% visible
METAR KOBE 140235Z AUTO 02005KT 10SM CLR 10/07 A3025 RMK AO2

10-Day Weather Forecast

Almanac

Astronomy

Feb. 13, 2016 Rise Set
Actual Time
Civil Twilight
Nautical Twilight
Astronomical Twilight
Moon
Length of Visible Light
Length of Day
Tomorrow will be .
, % of the Moon is Illuminated

Today's Extremes

State Highs State Lows

Community

WunderPhotos

Upload Photos

1,892,731 photos uploaded!

WunderBlog® & News

Nearby

Air Quality

  Air Quality AQ Index Pollutant
Not available.

Snow Depth

Station Depth Elevation

Earthquake Activity

City Distance Mag. Time & Date
Minimum magnitude displayed is 2.5.

Coastal Water Temperatures

Place Temperature

Stations

Nearby Weather Stations

Station Location Temp. Windchill Dew Point Humidity Wind Precip. Elev Updated Type
                   

Watches & Warnings

There are currently no watches in effect.